createdAt,value
2019-03-27T00:00:14.272Z,3.63
2019-03-27T00:02:43.005Z,3.27
2019-03-27T00:05:11.640Z,3.20
2019-03-27T00:07:40.413Z,3.10
2019-03-27T00:10:09.570Z,2.90
2019-03-27T00:12:38.709Z,3.10
2019-03-27T00:15:13.762Z,3.30
2019-03-27T00:17:41.857Z,3.03
2019-03-27T00:20:11.531Z,3.73
2019-03-27T00:22:40.186Z,2.27
2019-03-27T00:25:09.643Z,2.83
2019-03-27T00:27:38.342Z,3.40
2019-03-27T00:30:10.604Z,3.20
2019-03-27T00:32:39.258Z,3.67
2019-03-27T00:35:08.397Z,2.80
2019-03-27T00:37:37.279Z,2.83
2019-03-27T00:40:07.238Z,3.23
2019-03-27T00:42:35.980Z,2.87
2019-03-27T00:45:10.207Z,2.23
2019-03-27T00:47:38.910Z,2.30
2019-03-27T00:50:08.875Z,3.37
2019-03-27T00:52:37.839Z,2.70
2019-03-27T00:55:07.687Z,2.23
2019-03-27T00:57:36.618Z,2.90
2019-03-27T01:00:23.372Z,2.90
2019-03-27T01:02:52.065Z,2.63
2019-03-27T01:05:20.694Z,2.23
2019-03-27T01:07:49.444Z,2.63
2019-03-27T01:10:18.267Z,2.90
2019-03-27T01:12:46.960Z,2.53
2019-03-27T01:15:16.106Z,3.33
2019-03-27T01:17:44.775Z,2.60
2019-03-27T01:20:13.625Z,3.03
2019-03-27T01:22:42.617Z,2.83
2019-03-27T01:25:12.915Z,3.30
2019-03-27T01:27:42.346Z,2.90
2019-03-27T01:30:11.877Z,2.93
2019-03-27T01:32:40.502Z,2.93
2019-03-27T01:35:09.187Z,2.60
2019-03-27T01:37:37.979Z,2.73
2019-03-27T01:40:07.111Z,3.07
2019-03-27T01:42:35.810Z,2.77
2019-03-27T01:45:07.268Z,3.90
2019-03-27T01:47:35.949Z,3.37
2019-03-27T01:50:07.242Z,2.90
2019-03-27T01:52:36.105Z,2.80
2019-03-27T01:55:06.583Z,3.10
2019-03-27T01:57:35.321Z,3.30
2019-03-27T02:00:06.197Z,3.10
2019-03-27T02:02:34.976Z,3.43
2019-03-27T02:05:05.004Z,3.23
2019-03-27T02:07:33.825Z,3.20
2019-03-27T02:10:02.619Z,3.73
2019-03-27T02:12:31.299Z,3.80
2019-03-27T02:15:00.348Z,3.53
2019-03-27T02:17:29.107Z,4.10
2019-03-27T02:19:57.906Z,3.80
2019-03-27T02:22:26.592Z,4.27
2019-03-27T02:24:55.200Z,4.17
2019-03-27T02:27:23.887Z,4.13
2019-03-27T02:29:52.610Z,3.60
2019-03-27T02:32:21.385Z,3.40
2019-03-27T02:34:50.094Z,4.60
2019-03-27T02:37:18.827Z,4.00
2019-03-27T02:39:47.496Z,4.43
2019-03-27T02:42:16.126Z,4.70
2019-03-27T02:44:44.846Z,4.60
2019-03-27T02:47:13.599Z,5.13
2019-03-27T02:49:42.237Z,4.97
2019-03-27T02:52:11.087Z,5.47
2019-03-27T02:54:39.905Z,6.30
2019-03-27T02:57:08.609Z,5.90
2019-03-27T02:59:37.917Z,6.13
2019-03-27T03:02:06.671Z,6.23
2019-03-27T03:04:35.367Z,6.10
2019-03-27T03:07:04.084Z,6.60
2019-03-27T03:09:32.850Z,6.57
2019-03-27T03:12:01.529Z,6.60
2019-03-27T03:14:30.416Z,6.93
2019-03-27T03:16:59.114Z,7.37
2019-03-27T03:19:27.961Z,7.30
2019-03-27T03:21:56.608Z,8.00
2019-03-27T03:24:25.305Z,8.10
2019-03-27T03:26:53.971Z,8.00
2019-03-27T03:29:22.607Z,7.80
2019-03-27T03:31:51.233Z,7.97
2019-03-27T03:34:20.009Z,8.13
2019-03-27T03:36:48.746Z,7.67
2019-03-27T03:39:17.476Z,7.67
2019-03-27T03:41:46.237Z,8.70
2019-03-27T03:44:18.606Z,9.30
2019-03-27T03:46:59.372Z,8.80
2019-03-27T03:49:17.569Z,9.50
2019-03-27T03:51:46.288Z,8.20
2019-03-27T03:54:15.630Z,7.00
2019-03-27T03:56:45.706Z,7.77
2019-03-27T03:59:16.203Z,8.10
2019-03-27T04:01:45.839Z,8.43
2019-03-27T04:04:14.696Z,8.20
2019-03-27T04:06:43.370Z,8.20
2019-03-27T04:09:12.063Z,9.10
2019-03-27T04:11:40.756Z,7.67
2019-03-27T04:14:09.565Z,7.80
2019-03-27T04:16:38.334Z,7.93
2019-03-27T04:19:07.016Z,9.07
2019-03-27T04:21:36.022Z,9.00
2019-03-27T04:24:04.879Z,7.07
2019-03-27T04:26:33.811Z,7.13
2019-03-27T04:29:03.024Z,7.50
2019-03-27T04:31:31.851Z,7.43
2019-03-27T04:34:00.555Z,7.70
2019-03-27T04:36:29.421Z,7.43
2019-03-27T04:38:58.226Z,6.80
2019-03-27T04:41:26.909Z,7.07
2019-03-27T04:43:56.023Z,6.37
2019-03-27T04:46:24.641Z,6.30
2019-03-27T04:48:53.283Z,6.53
2019-03-27T04:51:21.932Z,6.97
2019-03-27T04:53:50.551Z,6.40
2019-03-27T04:56:19.162Z,6.33
2019-03-27T04:58:47.915Z,6.30
2019-03-27T05:01:16.658Z,6.60
2019-03-27T05:03:45.269Z,5.60
2019-03-27T05:06:14.021Z,6.17
2019-03-27T05:08:42.715Z,6.43
2019-03-27T05:11:11.339Z,7.87
2019-03-27T05:13:40.268Z,7.13
2019-03-27T05:16:09.030Z,7.70
2019-03-27T05:18:37.638Z,7.00
2019-03-27T05:21:06.542Z,7.30
2019-03-27T05:23:35.281Z,8.70
2019-03-27T05:26:04.100Z,7.83
2019-03-27T05:28:32.826Z,7.50
2019-03-27T05:31:01.718Z,6.77
2019-03-27T05:33:32.692Z,6.13
2019-03-27T05:36:00.823Z,6.80
2019-03-27T05:38:29.565Z,7.90
2019-03-27T05:40:58.262Z,7.33
2019-03-27T05:43:27.044Z,7.07
2019-03-27T05:45:55.740Z,6.70
2019-03-27T05:48:24.391Z,7.47
2019-03-27T05:50:53.071Z,7.50
2019-03-27T05:53:21.884Z,7.03
2019-03-27T05:55:50.733Z,7.67
2019-03-27T05:58:19.695Z,6.87
2019-03-27T06:00:48.336Z,7.50
2019-03-27T06:03:16.982Z,6.73
2019-03-27T06:05:45.777Z,7.60
2019-03-27T06:08:14.460Z,7.83
2019-03-27T06:10:43.241Z,8.47
2019-03-27T06:13:11.938Z,7.60
2019-03-27T06:15:40.630Z,7.73
2019-03-27T06:18:13.337Z,7.60
2019-03-27T06:20:39.630Z,9.00
2019-03-27T06:23:08.254Z,8.50
2019-03-27T06:25:36.889Z,9.70
2019-03-27T06:28:05.694Z,9.23
2019-03-27T06:30:34.334Z,9.17
2019-03-27T06:33:03.009Z,9.73
2019-03-27T06:35:31.710Z,8.73
2019-03-27T06:38:00.337Z,9.07
2019-03-27T06:40:29.024Z,8.70
2019-03-27T06:42:58.157Z,8.57
2019-03-27T06:45:26.869Z,10.30
2019-03-27T06:47:55.548Z,10.93
2019-03-27T06:50:24.254Z,8.23
2019-03-27T06:52:52.949Z,9.83
2019-03-27T06:55:21.728Z,8.80
2019-03-27T06:57:50.445Z,8.50
2019-03-27T07:00:22.268Z,9.40
2019-03-27T07:02:50.953Z,10.70
2019-03-27T07:05:20.061Z,10.57
2019-03-27T07:07:48.686Z,9.10
2019-03-27T07:10:17.771Z,9.20
2019-03-27T07:12:46.431Z,9.17
2019-03-27T07:15:15.256Z,9.30
2019-03-27T07:17:43.950Z,9.00
2019-03-27T07:20:12.760Z,8.70
2019-03-27T07:22:41.515Z,8.93
2019-03-27T07:25:10.742Z,8.57
2019-03-27T07:27:39.392Z,8.37
2019-03-27T07:30:09.933Z,7.57
2019-03-27T07:32:38.570Z,6.57
2019-03-27T07:35:07.582Z,6.30
2019-03-27T07:37:36.257Z,7.13
2019-03-27T07:40:07.112Z,5.83
2019-03-27T07:42:36.130Z,6.70
2019-03-27T07:45:07.350Z,5.73
2019-03-27T07:47:36.146Z,5.50
2019-03-27T07:50:07.355Z,5.27
2019-03-27T07:52:36.194Z,5.10
2019-03-27T07:55:18.791Z,4.70
2019-03-27T07:57:37.010Z,5.10
2019-03-27T08:00:14.430Z,4.63
2019-03-27T08:02:43.254Z,5.20
2019-03-27T08:05:12.070Z,5.33
2019-03-27T08:07:40.698Z,5.80
2019-03-27T08:10:09.447Z,5.20
2019-03-27T08:12:38.098Z,4.40
2019-03-27T08:15:08.083Z,3.87
2019-03-27T08:17:37.262Z,4.20
2019-03-27T08:20:07.615Z,6.53
2019-03-27T08:22:36.240Z,5.57
2019-03-27T08:25:08.160Z,5.30
2019-03-27T08:27:36.942Z,4.90
2019-03-27T08:30:15.830Z,5.00
2019-03-27T08:32:44.449Z,4.57
2019-03-27T08:35:13.358Z,5.10
2019-03-27T08:37:42.243Z,4.70
2019-03-27T08:40:11.375Z,5.47
2019-03-27T08:42:40.048Z,4.90
2019-03-27T08:45:09.566Z,7.30
2019-03-27T08:47:38.585Z,5.10
2019-03-27T08:50:08.613Z,4.47
2019-03-27T08:52:37.222Z,4.80
2019-03-27T08:55:06.945Z,5.10
2019-03-27T08:57:35.615Z,6.00
2019-03-27T09:00:07.916Z,5.63
2019-03-27T09:02:37.286Z,5.30
2019-03-27T09:05:08.063Z,6.13
2019-03-27T09:07:36.791Z,5.80
2019-03-27T09:10:06.992Z,5.90
2019-03-27T09:12:35.813Z,5.50
2019-03-27T09:15:06.765Z,5.80
2019-03-27T09:17:35.358Z,5.00
2019-03-27T09:20:06.101Z,5.43
2019-03-27T09:22:34.893Z,5.57
2019-03-27T09:25:04.528Z,5.27
2019-03-27T09:27:33.130Z,6.00
2019-03-27T09:30:01.803Z,5.00
2019-03-27T09:32:30.397Z,5.00
2019-03-27T09:34:59.022Z,5.07
2019-03-27T09:37:27.718Z,5.23
2019-03-27T09:39:56.328Z,5.50
2019-03-27T09:42:24.922Z,5.03
2019-03-27T09:44:53.879Z,4.77
2019-03-27T09:47:22.464Z,5.10
2019-03-27T09:49:51.143Z,5.27
2019-03-27T09:52:19.767Z,4.80
2019-03-27T09:54:48.722Z,4.70
2019-03-27T09:57:17.369Z,4.97
2019-03-27T09:59:46.124Z,4.70
2019-03-27T10:02:14.820Z,5.83
2019-03-27T10:04:43.733Z,4.70
2019-03-27T10:07:12.354Z,5.37
2019-03-27T10:09:40.986Z,5.00
2019-03-27T10:12:09.637Z,5.53
2019-03-27T10:14:38.430Z,4.73
2019-03-27T10:17:07.017Z,5.13
2019-03-27T10:19:35.620Z,5.10
2019-03-27T10:22:04.450Z,5.20
2019-03-27T10:24:33.097Z,4.60
2019-03-27T10:27:01.699Z,5.03
2019-03-27T10:29:30.458Z,4.70
2019-03-27T10:31:59.046Z,4.97
2019-03-27T10:34:27.649Z,4.87
2019-03-27T10:36:56.261Z,4.50
2019-03-27T10:39:24.913Z,4.30
2019-03-27T10:41:53.505Z,4.70
2019-03-27T10:44:22.122Z,4.10
2019-03-27T10:46:50.718Z,5.20
2019-03-27T10:49:19.301Z,4.10
2019-03-27T10:51:48.105Z,4.10
2019-03-27T10:54:16.696Z,4.23
2019-03-27T10:56:45.281Z,4.63
2019-03-27T10:59:14.277Z,4.10
2019-03-27T11:01:42.866Z,4.70
2019-03-27T11:04:11.462Z,4.60
2019-03-27T11:06:40.086Z,5.30
2019-03-27T11:09:09.610Z,4.90
2019-03-27T11:11:38.201Z,5.30
2019-03-27T11:14:06.966Z,4.77
2019-03-27T11:16:35.553Z,5.20
2019-03-27T11:19:04.214Z,4.40
2019-03-27T11:21:32.948Z,5.53
2019-03-27T11:24:01.541Z,5.33
2019-03-27T11:26:30.140Z,5.20
2019-03-27T11:28:58.775Z,5.27
2019-03-27T11:31:27.366Z,5.87
2019-03-27T11:33:55.961Z,5.07
2019-03-27T11:36:24.593Z,5.30
2019-03-27T11:38:53.193Z,5.50
2019-03-27T11:41:21.780Z,5.30
2019-03-27T11:43:55.091Z,6.80
2019-03-27T11:46:21.137Z,8.80
2019-03-27T11:48:49.725Z,5.83
2019-03-27T11:51:18.331Z,6.20
2019-03-27T11:53:46.984Z,5.00
2019-03-27T11:56:15.566Z,6.40
2019-03-27T11:58:44.202Z,5.90
2019-03-27T12:01:12.789Z,6.17
2019-03-27T12:03:41.377Z,8.50
2019-03-27T12:06:10.429Z,5.87
2019-03-27T12:08:39.029Z,7.13
2019-03-27T12:11:07.621Z,10.53
2019-03-27T12:13:36.238Z,7.80
2019-03-27T12:16:05.139Z,5.40
2019-03-27T12:18:33.740Z,5.13
2019-03-27T12:21:05.167Z,5.17
2019-03-27T12:23:33.753Z,5.20
2019-03-27T12:26:02.340Z,4.70
2019-03-27T12:28:30.970Z,4.97
2019-03-27T12:30:59.572Z,5.50
2019-03-27T12:33:28.233Z,6.30
2019-03-27T12:35:56.863Z,5.67
2019-03-27T12:38:25.454Z,4.40
2019-03-27T12:40:54.196Z,5.37
2019-03-27T12:43:22.921Z,4.10
2019-03-27T12:45:51.521Z,4.37
2019-03-27T12:48:20.124Z,4.63
2019-03-27T12:50:48.980Z,4.63
2019-03-27T12:53:17.554Z,5.00
2019-03-27T12:55:46.138Z,5.27
2019-03-27T12:58:15.142Z,4.93
2019-03-27T13:00:43.757Z,4.30
2019-03-27T13:03:12.345Z,5.27
2019-03-27T13:05:40.969Z,4.70
2019-03-27T13:08:09.591Z,4.93
2019-03-27T13:10:38.289Z,5.20
2019-03-27T13:13:07.008Z,5.33
2019-03-27T13:15:35.593Z,4.00
2019-03-27T13:18:04.444Z,4.87
2019-03-27T13:20:33.278Z,4.30
2019-03-27T13:23:01.861Z,4.10
2019-03-27T13:25:30.516Z,4.27
2019-03-27T13:27:59.325Z,4.00
2019-03-27T13:30:27.912Z,3.90
2019-03-27T13:32:56.509Z,4.00
2019-03-27T13:35:25.280Z,3.60
2019-03-27T13:37:53.877Z,5.57
2019-03-27T13:40:22.743Z,7.50
2019-03-27T13:42:51.550Z,4.43
2019-03-27T13:45:20.376Z,4.80
2019-03-27T13:47:49.035Z,4.97
2019-03-27T13:50:18.473Z,5.77
2019-03-27T13:52:47.089Z,4.60
2019-03-27T13:55:15.681Z,4.63
2019-03-27T13:57:44.292Z,4.20
2019-03-27T14:00:14.194Z,5.53
2019-03-27T14:02:42.773Z,4.10
2019-03-27T14:05:12.639Z,3.50
2019-03-27T14:07:41.314Z,3.53
2019-03-27T14:10:10.220Z,3.73
2019-03-27T14:12:38.952Z,3.40
2019-03-27T14:15:09.474Z,3.03
2019-03-27T14:17:38.066Z,3.20
2019-03-27T14:20:08.337Z,3.60
2019-03-27T14:22:36.996Z,3.70
2019-03-27T14:25:07.718Z,3.70
2019-03-27T14:27:36.503Z,3.63
2019-03-27T14:30:08.435Z,3.80
2019-03-27T14:32:37.019Z,3.97
2019-03-27T14:35:05.890Z,3.23
2019-03-27T14:37:34.485Z,3.47
2019-03-27T14:40:04.013Z,3.37
2019-03-27T14:42:32.626Z,3.30
2019-03-27T14:45:01.211Z,3.07
2019-03-27T14:47:31.079Z,3.40
2019-03-27T14:50:01.157Z,3.20
2019-03-27T14:52:29.746Z,3.93
2019-03-27T14:54:58.364Z,3.40
2019-03-27T14:57:27.189Z,3.90
2019-03-27T14:59:55.786Z,4.63
2019-03-27T15:02:24.374Z,3.73
2019-03-27T15:04:53.349Z,4.43
2019-03-27T15:07:21.938Z,4.80
2019-03-27T15:09:50.715Z,5.03
2019-03-27T15:12:19.478Z,4.50
2019-03-27T15:14:48.076Z,4.43
2019-03-27T15:17:16.730Z,4.87
2019-03-27T15:19:45.375Z,4.80
2019-03-27T15:22:22.172Z,3.77
2019-03-27T15:24:44.333Z,5.37
2019-03-27T15:27:13.063Z,4.53
2019-03-27T15:29:41.727Z,5.10
2019-03-27T15:32:10.335Z,5.10
2019-03-27T15:34:39.118Z,6.90
2019-03-27T15:37:07.713Z,5.07
2019-03-27T15:39:36.312Z,5.00
2019-03-27T15:42:05.072Z,4.37
2019-03-27T15:44:33.661Z,4.27
2019-03-27T15:47:02.254Z,5.00
2019-03-27T15:49:30.884Z,3.80
2019-03-27T15:51:59.469Z,4.23
2019-03-27T15:54:28.075Z,3.43
2019-03-27T15:56:57.010Z,3.53
2019-03-27T15:59:25.595Z,4.70
2019-03-27T16:01:54.193Z,3.90
2019-03-27T16:04:22.885Z,4.10
2019-03-27T16:06:51.549Z,4.57
2019-03-27T16:09:20.304Z,4.27
2019-03-27T16:11:49.016Z,3.47
2019-03-27T16:14:17.607Z,4.73
2019-03-27T16:17:01.355Z,4.00
2019-03-27T16:19:16.523Z,4.50
2019-03-27T16:21:45.110Z,4.80
2019-03-27T16:24:13.738Z,4.47
2019-03-27T16:26:42.331Z,5.17
2019-03-27T16:29:10.914Z,4.50
2019-03-27T16:31:39.617Z,3.90
2019-03-27T16:34:08.275Z,5.03
2019-03-27T16:36:56.391Z,5.73
2019-03-27T16:39:24.988Z,5.10
2019-03-27T16:41:53.581Z,4.77
2019-03-27T16:44:22.263Z,4.77
2019-03-27T16:46:50.881Z,6.60
2019-03-27T16:49:19.666Z,6.00
2019-03-27T16:51:48.401Z,5.50
2019-03-27T16:54:17.246Z,7.13
2019-03-27T16:56:45.859Z,6.90
2019-03-27T16:59:14.461Z,6.20
2019-03-27T17:01:43.076Z,5.80
2019-03-27T17:04:11.713Z,8.73
2019-03-27T17:06:40.310Z,7.30
2019-03-27T17:09:09.029Z,7.07
2019-03-27T17:11:37.663Z,6.63
2019-03-27T17:14:06.499Z,7.73
2019-03-27T17:16:35.185Z,7.30
2019-03-27T17:19:03.813Z,5.70
2019-03-27T17:21:32.425Z,11.60
2019-03-27T17:24:01.217Z,19.13
2019-03-27T17:26:29.914Z,6.90
2019-03-27T17:28:58.587Z,5.57
2019-03-27T17:31:27.194Z,5.27
2019-03-27T17:33:56.027Z,5.80
2019-03-27T17:36:24.611Z,5.70
2019-03-27T17:38:53.238Z,5.23
2019-03-27T17:41:21.848Z,6.03
2019-03-27T17:43:50.442Z,5.27
2019-03-27T17:46:19.031Z,6.00
2019-03-27T17:48:47.838Z,6.33
2019-03-27T17:51:16.433Z,6.27
2019-03-27T17:53:45.040Z,5.67
2019-03-27T17:56:13.867Z,5.87
2019-03-27T17:58:42.449Z,6.07
2019-03-27T18:01:11.187Z,6.33
2019-03-27T18:03:39.970Z,5.87
2019-03-27T18:06:08.577Z,5.50
2019-03-27T18:08:37.257Z,5.93
2019-03-27T18:11:08.119Z,5.53
2019-03-27T18:13:36.783Z,5.77
2019-03-27T18:16:05.527Z,6.23
2019-03-27T18:18:34.473Z,5.63
2019-03-27T18:21:03.054Z,6.07
2019-03-27T18:23:44.882Z,6.63
2019-03-27T18:26:02.006Z,5.83
2019-03-27T18:28:30.630Z,5.90
2019-03-27T18:30:59.413Z,5.80
2019-03-27T18:33:28.120Z,5.90
2019-03-27T18:35:57.099Z,6.20
2019-03-27T18:38:25.779Z,5.30
2019-03-27T18:40:54.434Z,6.47
2019-03-27T18:43:23.278Z,6.00
2019-03-27T18:45:51.890Z,5.10
2019-03-27T18:48:20.761Z,5.30
2019-03-27T18:50:49.402Z,5.60
2019-03-27T18:53:18.073Z,6.07
2019-03-27T18:55:46.841Z,6.50
2019-03-27T18:58:15.432Z,5.53
2019-03-27T19:00:44.198Z,5.00
2019-03-27T19:03:12.961Z,5.30
2019-03-27T19:05:41.826Z,5.93
2019-03-27T19:08:10.657Z,5.20
2019-03-27T19:10:39.399Z,5.23
2019-03-27T19:13:08.239Z,5.17
2019-03-27T19:15:37.068Z,5.67
2019-03-27T19:18:05.910Z,6.13
2019-03-27T19:20:34.582Z,4.90
2019-03-27T19:23:03.501Z,5.30
2019-03-27T19:25:32.338Z,5.57
2019-03-27T19:28:01.045Z,5.70
2019-03-27T19:30:29.747Z,5.07
2019-03-27T19:32:58.381Z,5.40
2019-03-27T19:35:27.098Z,6.37
2019-03-27T19:37:55.724Z,5.90
2019-03-27T19:40:24.322Z,5.73
2019-03-27T19:42:52.918Z,5.37
2019-03-27T19:45:21.598Z,5.00
2019-03-27T19:47:50.190Z,4.47
2019-03-27T19:50:18.990Z,4.43
2019-03-27T19:52:47.788Z,5.23
2019-03-27T19:55:16.582Z,4.90
2019-03-27T19:57:45.269Z,4.80
2019-03-27T20:00:14.760Z,4.67
2019-03-27T20:02:43.777Z,5.00
2019-03-27T20:05:12.453Z,5.50
2019-03-27T20:07:41.254Z,5.40
2019-03-27T20:10:12.068Z,5.50
2019-03-27T20:12:40.742Z,4.90
2019-03-27T20:15:12.066Z,4.93
2019-03-27T20:17:40.111Z,5.67
2019-03-27T20:20:09.469Z,6.70
2019-03-27T20:22:38.313Z,6.70
2019-03-27T20:25:10.675Z,6.00
2019-03-27T20:27:39.281Z,5.93
2019-03-27T20:30:16.537Z,6.70
2019-03-27T20:32:45.165Z,29.50
2019-03-27T20:35:14.016Z,16.17
2019-03-27T20:37:42.659Z,13.67
2019-03-27T20:40:12.031Z,21.60
2019-03-27T20:42:40.708Z,8.73
2019-03-27T20:45:10.010Z,8.10
2019-03-27T20:47:38.689Z,8.40
2019-03-27T20:50:08.119Z,8.20
2019-03-27T20:52:37.138Z,8.77
2019-03-27T20:55:06.450Z,9.20
2019-03-27T20:57:35.033Z,8.83
2019-03-27T21:00:05.497Z,9.10
2019-03-27T21:02:34.090Z,8.60
2019-03-27T21:05:02.683Z,9.07
2019-03-27T21:07:31.502Z,8.87
2019-03-27T21:10:00.356Z,9.17
2019-03-27T21:12:28.981Z,10.60
2019-03-27T21:14:57.653Z,10.27
2019-03-27T21:17:26.257Z,14.87
2019-03-27T21:19:55.233Z,10.73
2019-03-27T21:22:23.829Z,10.50
2019-03-27T21:24:52.413Z,10.50
2019-03-27T21:27:21.022Z,10.53
2019-03-27T21:29:49.621Z,9.73
2019-03-27T21:32:18.230Z,9.63
2019-03-27T21:34:46.824Z,10.67
2019-03-27T21:37:15.454Z,10.63
2019-03-27T21:39:44.092Z,10.03
2019-03-27T21:42:12.685Z,9.63
2019-03-27T21:44:41.301Z,10.00
2019-03-27T21:47:09.906Z,10.17
2019-03-27T21:49:38.525Z,11.53
2019-03-27T21:52:07.121Z,10.73
2019-03-27T21:54:35.807Z,11.10
2019-03-27T21:57:04.577Z,9.70
2019-03-27T21:59:33.159Z,9.53
2019-03-27T22:02:01.753Z,10.37
2019-03-27T22:04:30.588Z,9.23
2019-03-27T22:06:59.178Z,9.47
2019-03-27T22:09:28.694Z,9.73
2019-03-27T22:11:57.345Z,10.83
2019-03-27T22:14:26.008Z,9.50
2019-03-27T22:16:54.582Z,9.67
2019-03-27T22:19:23.233Z,10.67
2019-03-27T22:21:52.391Z,11.00
2019-03-27T22:24:21.070Z,10.00
2019-03-27T22:26:49.697Z,9.93
2019-03-27T22:29:18.385Z,10.47
2019-03-27T22:31:47.071Z,9.40
2019-03-27T22:34:15.829Z,9.93
2019-03-27T22:36:44.445Z,11.10
2019-03-27T22:39:13.015Z,11.37
2019-03-27T22:41:41.780Z,8.83
2019-03-27T22:44:10.381Z,10.30
2019-03-27T22:46:38.961Z,9.23
2019-03-27T22:49:07.697Z,8.27
2019-03-27T22:51:36.290Z,9.13
2019-03-27T22:54:04.856Z,9.53
2019-03-27T22:56:33.585Z,8.20
2019-03-27T22:59:02.174Z,7.50
2019-03-27T23:01:36.775Z,8.53
2019-03-27T23:04:05.557Z,7.97
2019-03-27T23:06:34.138Z,8.03
2019-03-27T23:09:03.008Z,7.87
2019-03-27T23:11:31.613Z,7.87
2019-03-27T23:14:00.197Z,7.77
2019-03-27T23:16:28.781Z,7.23
2019-03-27T23:18:57.384Z,8.30
2019-03-27T23:21:25.991Z,8.63
2019-03-27T23:23:54.564Z,7.90
2019-03-27T23:26:23.164Z,8.10
2019-03-27T23:28:51.821Z,7.27
2019-03-27T23:31:20.396Z,8.20
2019-03-27T23:33:49.095Z,7.23
2019-03-27T23:36:17.674Z,7.40
2019-03-27T23:38:46.346Z,7.43
2019-03-27T23:41:15.021Z,8.00
2019-03-27T23:43:43.605Z,7.73
2019-03-27T23:46:12.190Z,6.73
2019-03-27T23:48:40.784Z,6.63
2019-03-27T23:51:09.441Z,7.30
2019-03-27T23:53:38.026Z,7.97
2019-03-27T23:56:16.624Z,8.30
2019-03-27T23:58:36.954Z,8.03
